createdAt,value
2022-10-25T00:00:30.956Z,84.89544
2022-10-25T00:05:32.944Z,84.73652
2022-10-25T00:10:34.710Z,85.5817
2022-10-25T00:15:36.608Z,84.51217
2022-10-25T00:20:38.520Z,89.87178
2022-10-25T00:25:40.261Z,89.8731
2022-10-25T00:30:42.034Z,85.34271
2022-10-25T00:35:44.016Z,84.25265
2022-10-25T00:40:46.007Z,85.75327
2022-10-25T00:45:47.810Z,87.43714
2022-10-25T00:50:49.617Z,93.73664
2022-10-25T00:55:51.408Z,91.29159
2022-10-25T01:00:53.078Z,91.08979
2022-10-25T01:05:54.876Z,91.43855
2022-10-25T01:10:56.367Z,89.75184
2022-10-25T01:15:57.806Z,93.38772
2022-10-25T01:20:59.380Z,89.65285
2022-10-25T01:26:00.893Z,90.31602
2022-10-25T01:31:02.447Z,87.87889
2022-10-25T01:36:04.555Z,89.33371
2022-10-25T01:41:06.018Z,87.49619
2022-10-25T01:46:07.771Z,88.10413
2022-10-25T01:51:09.357Z,85.90504
2022-10-25T01:56:10.827Z,85.35612
2022-10-25T02:01:12.692Z,87.45901
2022-10-25T02:06:14.877Z,87.03253
2022-10-25T02:11:16.328Z,87.07178
2022-10-25T02:16:17.945Z,84.90636
2022-10-25T02:21:19.828Z,86.66267
2022-10-25T02:26:21.459Z,87.33768
2022-10-25T02:31:22.889Z,90.4743
2022-10-25T02:36:24.698Z,93.23915
2022-10-25T02:41:26.122Z,88.25947
2022-10-25T02:46:27.591Z,85.27925
2022-10-25T02:51:29.128Z,87.60163
2022-10-25T02:56:30.643Z,84.5458
2022-10-25T03:01:32.199Z,85.53825
2022-10-25T03:06:34.234Z,88.32171
2022-10-25T03:11:35.887Z,90.83348
2022-10-25T03:16:37.649Z,87.51768
2022-10-25T03:21:41.885Z,88.74412
2022-10-25T03:26:43.701Z,90.15957
2022-10-25T03:31:45.278Z,96.18134
2022-10-25T03:36:47.113Z,89.51225
2022-10-25T03:41:48.660Z,92.96397
2022-10-25T03:46:50.123Z,90.31504
2022-10-25T03:51:53.965Z,88.7804
2022-10-25T03:56:59.551Z,91.3626
2022-10-25T04:02:01.547Z,89.53505
2022-10-25T04:07:03.615Z,87.72216
2022-10-25T04:12:05.571Z,86.67111
2022-10-25T04:17:07.304Z,84.95271
2022-10-25T04:22:09.428Z,86.34001
2022-10-25T04:27:11.466Z,79.87907
2022-10-25T04:32:13.302Z,77.13388
2022-10-25T04:37:15.727Z,75.91826
2022-10-25T04:42:17.732Z,73.00667
2022-10-25T04:47:19.476Z,70.64091
2022-10-25T04:52:21.362Z,70.68233
2022-10-25T04:57:23.121Z,67.71166
2022-10-25T05:02:24.621Z,68.49376
2022-10-25T05:07:26.855Z,65.44554
2022-10-25T05:12:28.854Z,66.31918
2022-10-25T05:17:30.507Z,65.60701
2022-10-25T05:22:32.083Z,65.28602
2022-10-25T05:27:33.938Z,62.49447
2022-10-25T05:32:35.846Z,60.69024
2022-10-25T05:37:37.723Z,56.80023
2022-10-25T05:42:39.396Z,55.12914
2022-10-25T05:47:40.840Z,55.13351
2022-10-25T05:52:42.740Z,53.68559
2022-10-25T05:57:44.568Z,55.91813
2022-10-25T06:02:46.714Z,52.13334
2022-10-25T06:07:49.083Z,53.23301
2022-10-25T06:12:51.140Z,51.81549
2022-10-25T06:17:52.844Z,53.13654
2022-10-25T06:22:54.859Z,49.28144
2022-10-25T06:27:56.441Z,47.25847
2022-10-25T06:32:59.849Z,48.04359
2022-10-25T06:38:02.574Z,49.28627
2022-10-25T06:43:04.222Z,47.42227
2022-10-25T06:48:05.822Z,45.41853
2022-10-25T06:53:07.479Z,46.56817
2022-10-25T06:58:09.007Z,45.22499
2022-10-25T07:03:10.478Z,46.98507
2022-10-25T07:08:13.028Z,44.3291
2022-10-25T07:13:14.508Z,45.02453
2022-10-25T07:18:16.283Z,44.52842
2022-10-25T07:23:18.314Z,46.04175
2022-10-25T07:28:19.889Z,45.15091
2022-10-25T07:33:21.483Z,43.9371
2022-10-25T07:38:26.994Z,45.26757
2022-10-25T07:43:29.421Z,44.79407
2022-10-25T07:48:31.019Z,43.3715
2022-10-25T07:53:32.681Z,44.84908
2022-10-25T07:58:34.610Z,44.57131
2022-10-25T08:03:36.503Z,44.87211
2022-10-25T08:08:38.212Z,42.10393
2022-10-25T08:13:39.907Z,40.93277
2022-10-25T08:18:41.350Z,40.82541
2022-10-25T08:23:42.862Z,40.95973
2022-10-25T08:28:44.528Z,40.3191
2022-10-25T08:33:46.104Z,38.98764
2022-10-25T08:38:47.925Z,39.06235
2022-10-25T08:43:49.688Z,40.03313
2022-10-25T08:48:51.306Z,39.01927
2022-10-25T08:58:54.384Z,37.78659
2022-10-25T09:03:55.811Z,39.65331
2022-10-25T09:08:57.448Z,37.16268
2022-10-25T09:13:58.888Z,37.02002
2022-10-25T09:19:00.487Z,36.79831
2022-10-25T09:24:02.365Z,36.75694
2022-10-25T09:29:03.962Z,38.43281
2022-10-25T09:34:05.450Z,38.48116
2022-10-25T09:39:07.062Z,38.64316
2022-10-25T09:44:08.553Z,38.00235
2022-10-25T09:49:10.247Z,34.28524
2022-10-25T09:54:12.026Z,35.21973
2022-10-25T09:59:13.970Z,33.22432
2022-10-25T10:04:15.902Z,35.87408
2022-10-25T10:09:17.861Z,36.43548
2022-10-25T10:14:19.656Z,31.45955
2022-10-25T10:19:21.473Z,32.63129
2022-10-25T10:24:23.268Z,29.62146
2022-10-25T10:29:25.070Z,30.14711
2022-10-25T10:34:26.872Z,28.07162
2022-10-25T10:39:28.983Z,28.37675
2022-10-25T10:44:30.758Z,29.53784
2022-10-25T10:49:32.328Z,28.08532
2022-10-25T10:54:33.858Z,29.28716
2022-10-25T10:59:35.421Z,30.76255
2022-10-25T11:04:37.091Z,28.82803
2022-10-25T11:09:39.056Z,29.1475
2022-10-25T11:14:40.786Z,27.50923
2022-10-25T11:19:42.464Z,24.92863
2022-10-25T11:24:44.277Z,26.61276
2022-10-25T11:29:46.240Z,26.73445
2022-10-25T11:34:47.989Z,27.12443
2022-10-25T11:39:49.999Z,25.27155
2022-10-25T11:44:51.475Z,26.66192
2022-10-25T11:49:56.829Z,28.42814
2022-10-25T11:54:58.886Z,29.00666
2022-10-25T12:00:00.755Z,29.02583
2022-10-25T12:05:02.202Z,28.95004
2022-10-25T12:10:03.960Z,28.09339
2022-10-25T12:15:05.428Z,27.81746
2022-10-25T12:20:07.316Z,25.34789
2022-10-25T12:25:09.120Z,24.95781
2022-10-25T12:30:10.799Z,24.5478
2022-10-25T12:35:12.274Z,23.92794
2022-10-25T12:40:14.213Z,25.37187
2022-10-25T12:45:15.734Z,26.31478
2022-10-25T12:55:19.713Z,25.64432
2022-10-25T13:00:21.617Z,25.40313
2022-10-25T13:05:23.205Z,24.71671
2022-10-25T13:15:27.256Z,24.50644
2022-10-25T13:20:29.131Z,23.98137
2022-10-25T13:25:30.781Z,24.57741
2022-10-25T13:30:32.684Z,24.12792
2022-10-25T13:35:34.677Z,23.86729
2022-10-25T13:40:37.818Z,23.5158
2022-10-25T13:45:39.240Z,22.22995
2022-10-25T13:50:40.708Z,22.75798
2022-10-25T13:55:42.332Z,22.52025
2022-10-25T14:00:47.798Z,23.15064
2022-10-25T14:05:53.124Z,24.70774
2022-10-25T14:10:55.438Z,24.89103
2022-10-25T14:15:56.973Z,24.67162
2022-10-25T14:20:58.502Z,24.46348
2022-10-25T14:26:00.133Z,24.9021
2022-10-25T14:31:01.782Z,24.57067
2022-10-25T14:36:03.251Z,24.34336
2022-10-25T14:41:05.088Z,24.75642
2022-10-25T14:46:06.594Z,25.32993
2022-10-25T14:51:08.222Z,24.8581
2022-10-25T14:56:09.785Z,25.25371
2022-10-25T15:01:11.660Z,26.0284
2022-10-25T15:06:13.415Z,25.88855
2022-10-25T15:11:21.722Z,25.4941
2022-10-25T15:16:23.537Z,26.16541
2022-10-25T15:21:25.307Z,26.7054
2022-10-25T15:26:27.322Z,27.35265
2022-10-25T15:31:29.135Z,26.51888
2022-10-25T15:36:31.102Z,26.78756
2022-10-25T15:41:33.350Z,28.00885
2022-10-25T15:46:35.149Z,28.29594
2022-10-25T15:51:36.967Z,28.38102
2022-10-25T15:56:38.916Z,29.16954
2022-10-25T16:01:40.937Z,30.16634
2022-10-25T16:06:44.134Z,30.89036
2022-10-25T16:11:47.263Z,31.83431
2022-10-25T16:16:49.247Z,31.70322
2022-10-25T16:21:51.269Z,31.92957
2022-10-25T16:26:53.510Z,32.60111
2022-10-25T16:31:55.803Z,32.50319
2022-10-25T16:36:57.507Z,33.58426
2022-10-25T16:41:59.598Z,33.42316
2022-10-25T16:47:01.325Z,34.37153
2022-10-25T16:52:03.010Z,34.58547
2022-10-25T16:57:04.671Z,35.5159
2022-10-25T17:02:07.111Z,35.05745
2022-10-25T17:07:09.124Z,36.3783
2022-10-25T17:12:11.491Z,36.57591
2022-10-25T17:17:13.756Z,38.11248
2022-10-25T17:22:15.868Z,38.51776
2022-10-25T17:27:17.716Z,39.3691
2022-10-25T17:32:20.096Z,39.39481
2022-10-25T17:37:22.199Z,39.82909
2022-10-25T17:42:24.676Z,40.07818
2022-10-25T17:47:26.328Z,41.06588
2022-10-25T17:52:28.080Z,40.95417
2022-10-25T17:57:29.812Z,41.0918
2022-10-25T18:02:31.655Z,41.02669
2022-10-25T18:07:34.997Z,41.79417
2022-10-25T18:12:37.161Z,42.55762
2022-10-25T18:17:38.733Z,42.11689
2022-10-25T18:22:40.392Z,43.43489
2022-10-25T18:27:42.082Z,41.9337
2022-10-25T18:32:43.746Z,42.69537
2022-10-25T18:37:45.368Z,43.16846
2022-10-25T18:42:47.876Z,44.09072
2022-10-25T18:47:49.642Z,44.43991
2022-10-25T18:52:51.652Z,45.03759
2022-10-25T18:57:53.436Z,44.82226
2022-10-25T19:02:55.131Z,45.95252
2022-10-25T19:07:56.909Z,46.52821
2022-10-25T19:12:58.528Z,47.04892
2022-10-25T19:18:00.084Z,47.84853
2022-10-25T19:23:01.738Z,47.19723
2022-10-25T19:28:03.399Z,49.00855
2022-10-25T19:33:04.851Z,50.59605
2022-10-25T19:38:06.402Z,52.0223
2022-10-25T19:43:08.159Z,51.56839
2022-10-25T19:48:10.154Z,53.16964
2022-10-25T19:53:11.953Z,53.30631
2022-10-25T19:58:13.991Z,53.58745
2022-10-25T20:03:15.886Z,53.37258
2022-10-25T20:08:17.673Z,53.8311
2022-10-25T20:13:19.755Z,54.86543
2022-10-25T20:18:21.712Z,56.12715
2022-10-25T20:23:23.482Z,56.43574
2022-10-25T20:28:25.195Z,55.53314
2022-10-25T20:33:27.008Z,56.00517
2022-10-25T20:38:29.070Z,55.91925
2022-10-25T20:43:30.701Z,56.27657
2022-10-25T20:48:32.166Z,53.1053
2022-10-25T20:53:33.752Z,51.09775
2022-10-25T20:58:35.263Z,51.50468
2022-10-25T21:03:37.143Z,49.26396
2022-10-25T21:08:38.802Z,48.77872
2022-10-25T21:13:40.795Z,48.54385
2022-10-25T21:18:42.822Z,47.31821
2022-10-25T21:23:44.734Z,47.76174
2022-10-25T21:28:46.646Z,46.23937
2022-10-25T21:33:50.180Z,46.95026
2022-10-25T21:38:58.001Z,47.36311
2022-10-25T21:43:59.934Z,48.78696
2022-10-25T21:49:01.535Z,48.98402
2022-10-25T21:54:03.021Z,49.14069
2022-10-25T21:59:05.041Z,50.29784
2022-10-25T22:04:06.702Z,49.88437
2022-10-25T22:09:08.321Z,48.66994
2022-10-25T22:14:10.088Z,48.72064
2022-10-25T22:19:11.818Z,48.09543
2022-10-25T22:24:13.649Z,47.82059
2022-10-25T22:29:15.765Z,49.07014
2022-10-25T22:34:17.845Z,50.13899
2022-10-25T22:39:19.517Z,49.95412
2022-10-25T22:49:24.005Z,51.9021
2022-10-25T22:54:25.762Z,53.30835
2022-10-25T22:59:27.716Z,53.79858
2022-10-25T23:04:29.663Z,52.49959
2022-10-25T23:09:31.621Z,52.13428
2022-10-25T23:14:33.730Z,54.34734
2022-10-25T23:19:35.838Z,56.59349
2022-10-25T23:24:37.764Z,53.7947
2022-10-25T23:29:39.782Z,56.41731
2022-10-25T23:34:41.663Z,54.39845
2022-10-25T23:39:43.538Z,53.15901
2022-10-25T23:44:45.494Z,55.65746
2022-10-25T23:49:47.265Z,55.12957
2022-10-25T23:54:49.055Z,53.95766
2022-10-25T23:59:50.986Z,55.05731
